sensor_id;sensor_type;location;lat;lon;timestamp;pressure;altitude;pressure_sealevel;temperature;humidity
45941;BME280;31858;46.008;8.978;2023-01-24T00:01:41;95209.72;;;4.00;80.55
45941;BME280;31858;46.008;8.978;2023-01-24T00:11:44;95220.28;;;3.91;82.93
45941;BME280;31858;46.008;8.978;2023-01-24T00:21:46;95223.38;;;4.02;84.34
45941;BME280;31858;46.008;8.978;2023-01-24T00:31:49;95239.84;;;3.64;89.89
45941;BME280;31858;46.008;8.978;2023-01-24T00:41:51;95247.28;;;3.45;92.52
45941;BME280;31858;46.008;8.978;2023-01-24T00:51:54;95258.41;;;3.24;98.89
45941;BME280;31858;46.008;8.978;2023-01-24T01:01:55;95277.47;;;3.39;91.25
45941;BME280;31858;46.008;8.978;2023-01-24T01:11:58;95275.03;;;3.51;89.88
45941;BME280;31858;46.008;8.978;2023-01-24T01:22:00;95294.97;;;3.26;97.64
45941;BME280;31858;46.008;8.978;2023-01-24T01:32:03;95312.66;;;3.43;100.00
45941;BME280;31858;46.008;8.978;2023-01-24T01:42:04;95316.41;;;3.50;99.36
45941;BME280;31858;46.008;8.978;2023-01-24T01:52:07;95321.22;;;3.57;100.00
45941;BME280;31858;46.008;8.978;2023-01-24T02:02:10;95306.00;;;3.45;100.00
45941;BME280;31858;46.008;8.978;2023-01-24T02:12:17;95305.72;;;3.55;93.43
45941;BME280;31858;46.008;8.978;2023-01-24T02:22:24;95318.91;;;3.55;85.36
45941;BME280;31858;46.008;8.978;2023-01-24T02:32:28;95321.03;;;3.45;100.00
45941;BME280;31858;46.008;8.978;2023-01-24T02:42:33;95322.56;;;3.37;100.00
45941;BME280;31858;46.008;8.978;2023-01-24T02:52:36;95342.78;;;3.11;100.00
45941;BME280;31858;46.008;8.978;2023-01-24T03:02:55;95350.03;;;2.74;100.00
45941;BME280;31858;46.008;8.978;2023-01-24T03:12:58;95358.47;;;2.62;100.00
45941;BME280;31858;46.008;8.978;2023-01-24T03:23:17;95350.84;;;2.52;100.00
45941;BME280;31858;46.008;8.978;2023-01-24T03:33:38;95358.91;;;2.56;100.00
45941;BME280;31858;46.008;8.978;2023-01-24T03:43:56;95357.91;;;2.43;100.00
45941;BME280;31858;46.008;8.978;2023-01-24T03:53:59;95372.31;;;2.46;100.00
45941;BME280;31858;46.008;8.978;2023-01-24T04:04:01;95379.19;;;2.55;100.00
45941;BME280;31858;46.008;8.978;2023-01-24T04:14:04;95381.31;;;2.76;100.00
45941;BME280;31858;46.008;8.978;2023-01-24T04:24:06;95378.69;;;3.07;100.00
45941;BME280;31858;46.008;8.978;2023-01-24T04:34:09;95380.53;;;2.75;100.00
45941;BME280;31858;46.008;8.978;2023-01-24T04:44:10;95395.53;;;2.75;100.00
45941;BME280;31858;46.008;8.978;2023-01-24T04:54:13;95411.91;;;2.94;100.00
45941;BME280;31858;46.008;8.978;2023-01-24T05:04:15;95409.28;;;2.94;100.00
45941;BME280;31858;46.008;8.978;2023-01-24T05:14:18;95423.41;;;2.76;100.00
45941;BME280;31858;46.008;8.978;2023-01-24T05:24:19;95422.69;;;2.61;100.00
45941;BME280;31858;46.008;8.978;2023-01-24T05:34:22;95433.41;;;2.65;100.00
45941;BME280;31858;46.008;8.978;2023-01-24T05:44:24;95431.25;;;2.67;100.00
45941;BME280;31858;46.008;8.978;2023-01-24T05:54:27;95442.50;;;2.81;100.00
45941;BME280;31858;46.008;8.978;2023-01-24T06:04:28;95460.84;;;2.95;100.00
45941;BME280;31858;46.008;8.978;2023-01-24T06:14:31;95454.28;;;2.84;100.00
45941;BME280;31858;46.008;8.978;2023-01-24T06:24:33;95459.94;;;2.77;100.00
45941;BME280;31858;46.008;8.978;2023-01-24T06:34:54;95468.81;;;3.04;100.00
45941;BME280;31858;46.008;8.978;2023-01-24T06:44:56;95479.63;;;2.57;100.00
45941;BME280;31858;46.008;8.978;2023-01-24T06:54:59;95481.13;;;2.72;100.00
45941;BME280;31858;46.008;8.978;2023-01-24T07:05:01;95490.28;;;2.52;100.00
45941;BME280;31858;46.008;8.978;2023-01-24T07:15:05;95502.66;;;2.74;100.00
45941;BME280;31858;46.008;8.978;2023-01-24T07:25:11;95509.88;;;2.46;100.00
45941;BME280;31858;46.008;8.978;2023-01-24T07:35:15;95523.28;;;2.58;100.00
45941;BME280;31858;46.008;8.978;2023-01-24T07:45:17;95534.94;;;2.66;100.00
45941;BME280;31858;46.008;8.978;2023-01-24T07:55:22;95532.25;;;2.57;100.00
45941;BME280;31858;46.008;8.978;2023-01-24T08:05:24;95543.72;;;2.61;100.00
45941;BME280;31858;46.008;8.978;2023-01-24T08:15:27;95538.84;;;2.69;100.00
45941;BME280;31858;46.008;8.978;2023-01-24T08:25:29;95542.50;;;2.81;100.00
45941;BME280;31858;46.008;8.978;2023-01-24T08:35:33;95562.63;;;2.63;100.00
45941;BME280;31858;46.008;8.978;2023-01-24T08:45:35;95567.28;;;2.80;100.00
45941;BME280;31858;46.008;8.978;2023-01-24T08:55:38;95586.19;;;2.82;100.00
45941;BME280;31858;46.008;8.978;2023-01-24T09:05:39;95588.84;;;3.05;100.00
45941;BME280;31858;46.008;8.978;2023-01-24T09:15:43;95595.97;;;3.04;100.00
45941;BME280;31858;46.008;8.978;2023-01-24T09:25:50;95600.53;;;3.12;100.00
45941;BME280;31858;46.008;8.978;2023-01-24T09:35:55;95591.97;;;3.07;100.00
45941;BME280;31858;46.008;8.978;2023-01-24T09:46:04;95599.09;;;3.06;100.00
45941;BME280;31858;46.008;8.978;2023-01-24T09:56:12;95600.53;;;3.12;100.00
45941;BME280;31858;46.008;8.978;2023-01-24T10:06:27;95598.03;;;3.52;100.00
45941;BME280;31858;46.008;8.978;2023-01-24T10:16:55;95597.84;;;3.71;100.00
45941;BME280;31858;46.008;8.978;2023-01-24T10:27:01;95591.81;;;4.10;100.00
45941;BME280;31858;46.008;8.978;2023-01-24T10:37:17;95592.25;;;4.43;100.00
45941;BME280;31858;46.008;8.978;2023-01-24T10:47:39;95574.03;;;4.81;100.00
45941;BME280;31858;46.008;8.978;2023-01-24T10:57:48;95569.41;;;5.04;100.00
45941;BME280;31858;46.008;8.978;2023-01-24T11:07:52;95569.53;;;5.24;100.00
45941;BME280;31858;46.008;8.978;2023-01-24T11:17:58;95573.09;;;5.46;100.00
45941;BME280;31858;46.008;8.978;2023-01-24T11:28:00;95564.22;;;5.59;100.00
45941;BME280;31858;46.008;8.978;2023-01-24T11:38:13;95557.47;;;5.79;100.00
45941;BME280;31858;46.008;8.978;2023-01-24T11:48:19;95533.34;;;5.98;100.00
45941;BME280;31858;46.008;8.978;2023-01-24T11:58:37;95526.59;;;6.09;100.00
45941;BME280;31858;46.008;8.978;2023-01-24T12:08:54;95524.59;;;6.35;100.00
45941;BME280;31858;46.008;8.978;2023-01-24T12:19:20;95506.44;;;6.75;100.00
45941;BME280;31858;46.008;8.978;2023-01-24T12:29:30;95493.34;;;7.12;98.62
45941;BME280;31858;46.008;8.978;2023-01-24T12:39:39;95493.25;;;7.41;95.88
45941;BME280;31858;46.008;8.978;2023-01-24T12:49:51;95474.44;;;7.79;86.81
45941;BME280;31858;46.008;8.978;2023-01-24T12:59:58;95471.66;;;8.12;77.79
45941;BME280;31858;46.008;8.978;2023-01-24T13:10:08;95461.06;;;8.37;75.47
45941;BME280;31858;46.008;8.978;2023-01-24T13:20:23;95457.38;;;8.54;70.41
45941;BME280;31858;46.008;8.978;2023-01-24T13:30:32;95452.88;;;8.82;69.88
45941;BME280;31858;46.008;8.978;2023-01-24T13:40:40;95457.28;;;8.90;70.90
45941;BME280;31858;46.008;8.978;2023-01-24T13:50:42;95463.81;;;8.93;72.18
45941;BME280;31858;46.008;8.978;2023-01-24T14:00:47;95456.22;;;9.07;68.80
45941;BME280;31858;46.008;8.978;2023-01-24T14:11:15;95460.16;;;9.13;68.23
45941;BME280;31858;46.008;8.978;2023-01-24T14:21:20;95462.06;;;9.12;69.88
45941;BME280;31858;46.008;8.978;2023-01-24T14:31:24;95468.31;;;9.04;69.07
45941;BME280;31858;46.008;8.978;2023-01-24T14:41:28;95458.28;;;9.13;71.06
45941;BME280;31858;46.008;8.978;2023-01-24T14:51:30;95460.88;;;9.10;65.41
45941;BME280;31858;46.008;8.978;2023-01-24T15:01:33;95471.47;;;8.82;63.56
45941;BME280;31858;46.008;8.978;2023-01-24T15:11:35;95466.19;;;8.70;64.08
45941;BME280;31858;46.008;8.978;2023-01-24T15:21:43;95467.34;;;8.57;74.91
45941;BME280;31858;46.008;8.978;2023-01-24T15:31:48;95463.47;;;8.54;100.00
45941;BME280;31858;46.008;8.978;2023-01-24T15:41:51;95466.47;;;8.40;100.00
45941;BME280;31858;46.008;8.978;2023-01-24T15:52:19;95469.22;;;8.19;100.00
45941;BME280;31858;46.008;8.978;2023-01-24T16:02:22;95474.63;;;7.86;100.00
45941;BME280;31858;46.008;8.978;2023-01-24T16:12:26;95480.09;;;7.45;100.00
45941;BME280;31858;46.008;8.978;2023-01-24T16:22:30;95495.28;;;7.24;100.00
45941;BME280;31858;46.008;8.978;2023-01-24T16:32:31;95501.38;;;7.03;100.00
45941;BME280;31858;46.008;8.978;2023-01-24T16:42:39;95504.88;;;6.95;100.00
45941;BME280;31858;46.008;8.978;2023-01-24T16:52:41;95509.41;;;6.74;100.00
45941;BME280;31858;46.008;8.978;2023-01-24T17:02:44;95521.16;;;6.85;100.00
45941;BME280;31858;46.008;8.978;2023-01-24T17:12:49;95519.13;;;6.61;100.00
45941;BME280;31858;46.008;8.978;2023-01-24T17:22:52;95526.56;;;6.47;100.00
45941;BME280;31858;46.008;8.978;2023-01-24T17:32:54;95533.31;;;6.06;100.00
45941;BME280;31858;46.008;8.978;2023-01-24T17:42:57;95533.06;;;5.91;100.00
45941;BME280;31858;46.008;8.978;2023-01-24T17:52:58;95538.50;;;5.77;100.00
45941;BME280;31858;46.008;8.978;2023-01-24T18:03:01;95541.50;;;5.67;100.00
45941;BME280;31858;46.008;8.978;2023-01-24T18:13:04;95540.41;;;5.59;100.00
45941;BME280;31858;46.008;8.978;2023-01-24T18:23:07;95530.03;;;5.37;100.00
45941;BME280;31858;46.008;8.978;2023-01-24T18:33:09;95529.28;;;5.28;100.00
45941;BME280;31858;46.008;8.978;2023-01-24T18:43:12;95528.38;;;5.06;100.00
45941;BME280;31858;46.008;8.978;2023-01-24T18:53:14;95519.22;;;5.04;100.00
45941;BME280;31858;46.008;8.978;2023-01-24T19:03:16;95509.56;;;4.90;100.00
45941;BME280;31858;46.008;8.978;2023-01-24T19:13:18;95515.16;;;4.80;100.00
45941;BME280;31858;46.008;8.978;2023-01-24T19:23:21;95516.09;;;4.67;100.00
45941;BME280;31858;46.008;8.978;2023-01-24T19:33:23;95511.75;;;4.63;100.00
45941;BME280;31858;46.008;8.978;2023-01-24T19:43:26;95514.81;;;4.47;100.00
45941;BME280;31858;46.008;8.978;2023-01-24T19:53:27;95525.69;;;4.46;100.00
45941;BME280;31858;46.008;8.978;2023-01-24T20:03:31;95519.00;;;4.48;100.00
45941;BME280;31858;46.008;8.978;2023-01-24T20:13:32;95525.81;;;4.41;100.00
45941;BME280;31858;46.008;8.978;2023-01-24T20:23:36;95523.81;;;4.46;100.00
45941;BME280;31858;46.008;8.978;2023-01-24T20:33:38;95534.94;;;4.26;100.00
45941;BME280;31858;46.008;8.978;2023-01-24T20:43:42;95530.56;;;4.13;100.00
45941;BME280;31858;46.008;8.978;2023-01-24T20:53:44;95532.13;;;4.14;100.00
45941;BME280;31858;46.008;8.978;2023-01-24T21:03:48;95542.19;;;4.12;100.00
45941;BME280;31858;46.008;8.978;2023-01-24T21:13:50;95539.00;;;3.92;100.00
45941;BME280;31858;46.008;8.978;2023-01-24T21:23:53;95545.66;;;3.81;100.00
45941;BME280;31858;46.008;8.978;2023-01-24T21:33:55;95538.53;;;3.82;100.00
45941;BME280;31858;46.008;8.978;2023-01-24T21:43:58;95552.00;;;3.80;100.00
45941;BME280;31858;46.008;8.978;2023-01-24T21:54:00;95550.97;;;3.99;100.00
45941;BME280;31858;46.008;8.978;2023-01-24T22:04:08;95537.63;;;3.86;100.00
45941;BME280;31858;46.008;8.978;2023-01-24T22:14:14;95535.16;;;3.90;100.00
45941;BME280;31858;46.008;8.978;2023-01-24T22:24:26;95532.19;;;3.91;100.00
45941;BME280;31858;46.008;8.978;2023-01-24T22:34:33;95516.09;;;4.02;100.00
45941;BME280;31858;46.008;8.978;2023-01-24T22:44:36;95512.31;;;4.34;100.00
45941;BME280;31858;46.008;8.978;2023-01-24T22:54:38;95516.63;;;4.30;100.00
45941;BME280;31858;46.008;8.978;2023-01-24T23:04:41;95504.22;;;4.21;100.00
45941;BME280;31858;46.008;8.978;2023-01-24T23:14:43;95505.44;;;4.15;100.00
45941;BME280;31858;46.008;8.978;2023-01-24T23:25:06;95506.47;;;4.06;100.00
45941;BME280;31858;46.008;8.978;2023-01-24T23:35:09;95504.00;;;4.01;100.00
45941;BME280;31858;46.008;8.978;2023-01-24T23:45:15;95493.81;;;4.25;100.00
45941;BME280;31858;46.008;8.978;2023-01-24T23:55:16;95495.66;;;4.16;100.00
